Redwood City, CA (94065)

6:12 PM PST on December 03, 2016 (GMT -0800)
Neighborhood One | | Change Station

Elev 3 ft 37.56 °N, 122.26 °W | Updated 475 days ago

Clear
Clear
52 °F
Feels Like 52 °F
N
4
Wind Variable Wind from WSW
Gusts mph

Today
High -- | Low -- °F
--% Chance of Precip.
Yesterday
High -- | Low -- °F
Precip. -- in
Pressure 30.19 in
Visibility 10.0 miles
Clouds Few 20000 ft
Dew Point 48 °F
Humidity 83%
Rainfall in
Snow Depth Not available.
7:07 AM 4:50 PM
Waxing Crescent, 19% visible
METAR KSQL 040147Z 00000KT 10SM FEW200 13/09 A3019
Pressure 30.19 in
Visibility 10.0 miles
Clouds Few 20000 ft
Dew Point 48 °F
Humidity 83%
Rainfall in
Snow Depth Not available.
7:07 AM 4:50 PM
Waxing Crescent, 19% visible
METAR KSQL 040147Z 00000KT 10SM FEW200 13/09 A3019

10-Day Weather Forecast

Almanac

Astronomy

Dec. 03, 2016 Rise Set
Actual Time
Civil Twilight
Nautical Twilight
Astronomical Twilight
Moon
Length of Visible Light
Length of Day
Tomorrow will be .
, % of the Moon is Illuminated

Today's Extremes

State Highs State Lows

Community

WunderPhotos

Upload Photos

1,955,562 photos uploaded!

WunderBlog® & News

Nearby

Air Quality

  Air Quality AQ Index Pollutant
Not available.

Snow Depth

Station Depth Elevation

Earthquake Activity

City Distance Mag. Time & Date
Minimum magnitude displayed is 2.5.

Coastal Water Temperatures

Place Temperature

Stations

Nearby Weather Stations

Station Location Temp. Windchill Dew Point Humidity Wind Precip. Elev Updated Type
                   

Watches & Warnings

There are currently no watches in effect.